Airfield :
LOGIN :

Register | Disclaimer

   EN    FR    IT 

 










Legend :    VFR   Marginal VFR   IFR   Intensive IFR   Very Intensive IFR
Visi :
Ceiling :
>= 8 km
>= 3000ft
5 to 8 km
1000 to 3000 ft
1500m to 5 km
500 to 1000 ft
800 to 1500m
200 to 500 ft
< 800m
< 200 ft
Symbols :   Thunderstorms  Fog  Heavy snow  Heavy precipitations  Wind > 20 kt
SIGMETs :     Misc.  Thunderstorms  Icing  Turbulence  Mountain Waves  Volcanic Ashes







- Airport Elevation : 416 ft
- IATA code : OVD


LEAS - Asturias

CURRENT METAR :
  • 130530Z 27014KT 250V320 9999 -RA FEW014 SCT038 BKN061 09/07 Q1006 TEMPO 3000 SHRA SCT020TCU

EXPIRED METARs :
  • 130500Z 28015G26KT 9999 -RA FEW014 BKN026 BKN033 10/08 Q1006 TEMPO 3000 SHRA SCT020TCU
  • 130430Z AUTO 26009KT 9999 -RA BKN057 OVC066 10/07 Q1006
  • 130400Z AUTO 28014KT 240V310 9999 -RA BKN050 OVC060 10/09 Q1005
  • 130330Z AUTO 30019KT 7000 RA SCT024/// BKN041/// OVC067/// 11/09 Q1005
  • 130300Z AUTO 32009KT 290V020 9999 FEW060 SCT070 13/10 Q1004

TAF TAF LEAS
Valid from the 13 at 03:00 until the 14 at 03:00 UTC


130200Z 1303/1403 26009KT 9999 BKN030 TX11/1303Z TN08/1403Z
TEMPO 1306/1321 27015G30KT
PROB40
TEMPO 1309/1315 27025G40KT
TEMPO 1303/1403 3000 RA SHRA BKN014 SCT020TCU
PROB40
TEMPO 1309/1318 3000 SHRA TS SCT020CB
No reported NOTAMs for that airfield.
3 SIGMETs reported for the Madrid FIR (LECM) :
 
Severe turbulence
LECM SIGMET 3 VALID 130540/130800 LEVA
LECM MADRID UIR SEV TURB OBS AT 0540Z WI N4340 W00211 - N4247 W00209 - N4243 W00113 - N4309 W00124 - N4340 W00211 FL360/380 STNR NC=
Severe turbulence
LECM SIGMET 2 VALID 130600/131000 LEVA
LECM MADRID FIR/UIR SEV TURB FCST W OF LINE N3757 W00501 - N3554 W00417 FL240/340 MOV E NC=
Severe turbulence
LECM SIGMET 1 VALID 130400/130800 LEVA
LECM MADRID FIR SEV TURB FCST W OF LINE N4435 W006 - N3551 W00506 SFC/FL220 MOV E NC=



MET'MAP, your aeronautical weather chart ! - Copyright ORBIFLY December 2007 - Disclaimer

ORBIFLY MET'MAP TEAM :

Programming & Development : Alexandra Zaïnal
Concept & Development : Baudouin d'Aumeries
Co-Development & Prog : Marc-Olivier Méhu
Technical & hardware support : Manuel Goepfert

Contact : metmap@orbifly.com




SOURCES & CREDITS :

   NOAA